sensor_id;sensor_type;location;lat;lon;timestamp;temperature;humidity
76203;DHT22;64985;46.364;17.008;2023-06-26T00:01:35;13.90;99.90
76203;DHT22;64985;46.364;17.008;2023-06-26T00:04:37;14.00;99.90
76203;DHT22;64985;46.364;17.008;2023-06-26T00:07:40;14.00;99.90
76203;DHT22;64985;46.364;17.008;2023-06-26T00:10:42;14.00;99.90
76203;DHT22;64985;46.364;17.008;2023-06-26T00:13:44;13.90;99.90
76203;DHT22;64985;46.364;17.008;2023-06-26T00:16:49;14.00;99.90
76203;DHT22;64985;46.364;17.008;2023-06-26T00:19:51;14.00;99.90
76203;DHT22;64985;46.364;17.008;2023-06-26T00:22:54;13.90;99.90
76203;DHT22;64985;46.364;17.008;2023-06-26T00:25:57;13.90;99.90
76203;DHT22;64985;46.364;17.008;2023-06-26T00:28:59;13.70;99.90
76203;DHT22;64985;46.364;17.008;2023-06-26T00:32:01;13.60;99.90
76203;DHT22;64985;46.364;17.008;2023-06-26T00:35:03;13.50;99.90
76203;DHT22;64985;46.364;17.008;2023-06-26T00:38:05;13.40;99.90
76203;DHT22;64985;46.364;17.008;2023-06-26T00:41:07;13.40;99.90
76203;DHT22;64985;46.364;17.008;2023-06-26T00:44:14;13.40;99.90
76203;DHT22;64985;46.364;17.008;2023-06-26T00:47:17;13.50;99.90
76203;DHT22;64985;46.364;17.008;2023-06-26T00:50:20;13.40;99.90
76203;DHT22;64985;46.364;17.008;2023-06-26T00:53:22;13.40;99.90
76203;DHT22;64985;46.364;17.008;2023-06-26T00:56:24;13.40;99.90
76203;DHT22;64985;46.364;17.008;2023-06-26T00:59:27;13.30;99.90
76203;DHT22;64985;46.364;17.008;2023-06-26T01:02:29;13.30;99.90
76203;DHT22;64985;46.364;17.008;2023-06-26T01:05:35;13.40;99.90
76203;DHT22;64985;46.364;17.008;2023-06-26T01:08:38;13.40;99.90
76203;DHT22;64985;46.364;17.008;2023-06-26T01:11:41;13.40;99.90
76203;DHT22;64985;46.364;17.008;2023-06-26T01:14:43;13.40;99.90
76203;DHT22;64985;46.364;17.008;2023-06-26T01:17:46;13.30;99.90
76203;DHT22;64985;46.364;17.008;2023-06-26T01:20:49;13.30;99.90
76203;DHT22;64985;46.364;17.008;2023-06-26T01:24:00;13.20;99.90
76203;DHT22;64985;46.364;17.008;2023-06-26T01:27:06;13.10;99.90
76203;DHT22;64985;46.364;17.008;2023-06-26T01:30:10;13.00;99.90
76203;DHT22;64985;46.364;17.008;2023-06-26T01:33:13;13.00;99.90
76203;DHT22;64985;46.364;17.008;2023-06-26T01:36:15;13.00;99.90
76203;DHT22;64985;46.364;17.008;2023-06-26T01:39:19;12.90;99.90
76203;DHT22;64985;46.364;17.008;2023-06-26T01:42:21;12.80;99.90
76203;DHT22;64985;46.364;17.008;2023-06-26T01:45:29;12.80;99.90
76203;DHT22;64985;46.364;17.008;2023-06-26T01:49:01;12.70;99.90
76203;DHT22;64985;46.364;17.008;2023-06-26T01:55:35;13.00;99.90
76203;DHT22;64985;46.364;17.008;2023-06-26T01:58:45;13.00;99.90
76203;DHT22;64985;46.364;17.008;2023-06-26T02:01:48;12.90;99.90
76203;DHT22;64985;46.364;17.008;2023-06-26T02:04:51;12.90;99.90
76203;DHT22;64985;46.364;17.008;2023-06-26T02:07:53;12.90;99.90
76203;DHT22;64985;46.364;17.008;2023-06-26T02:10:56;12.90;99.90
76203;DHT22;64985;46.364;17.008;2023-06-26T02:13:58;12.90;99.90
76203;DHT22;64985;46.364;17.008;2023-06-26T02:17:00;12.80;99.90
76203;DHT22;64985;46.364;17.008;2023-06-26T02:20:02;12.70;99.90
76203;DHT22;64985;46.364;17.008;2023-06-26T02:23:04;12.70;99.90
76203;DHT22;64985;46.364;17.008;2023-06-26T02:26:07;12.70;99.90
76203;DHT22;64985;46.364;17.008;2023-06-26T02:29:09;12.60;99.90
76203;DHT22;64985;46.364;17.008;2023-06-26T02:32:11;12.50;99.90
76203;DHT22;64985;46.364;17.008;2023-06-26T02:35:13;12.40;99.90
76203;DHT22;64985;46.364;17.008;2023-06-26T02:38:16;12.30;99.90
76203;DHT22;64985;46.364;17.008;2023-06-26T02:41:18;12.30;99.90
76203;DHT22;64985;46.364;17.008;2023-06-26T02:44:20;12.30;99.90
76203;DHT22;64985;46.364;17.008;2023-06-26T02:47:23;12.40;99.90
76203;DHT22;64985;46.364;17.008;2023-06-26T02:50:25;12.30;99.90
76203;DHT22;64985;46.364;17.008;2023-06-26T02:53:27;12.20;99.90
76203;DHT22;64985;46.364;17.008;2023-06-26T02:56:29;12.30;99.90
76203;DHT22;64985;46.364;17.008;2023-06-26T02:59:32;12.30;99.90
76203;DHT22;64985;46.364;17.008;2023-06-26T03:02:34;12.50;99.90
76203;DHT22;64985;46.364;17.008;2023-06-26T03:05:36;12.50;99.90
76203;DHT22;64985;46.364;17.008;2023-06-26T03:08:40;12.50;99.90
76203;DHT22;64985;46.364;17.008;2023-06-26T03:11:42;12.50;99.90
76203;DHT22;64985;46.364;17.008;2023-06-26T03:14:44;12.40;99.90
76203;DHT22;64985;46.364;17.008;2023-06-26T03:17:48;12.40;99.90
76203;DHT22;64985;46.364;17.008;2023-06-26T03:20:50;12.40;99.90
76203;DHT22;64985;46.364;17.008;2023-06-26T03:23:52;12.40;99.90
76203;DHT22;64985;46.364;17.008;2023-06-26T03:26:54;12.30;99.90
76203;DHT22;64985;46.364;17.008;2023-06-26T03:29:57;12.20;99.90
76203;DHT22;64985;46.364;17.008;2023-06-26T03:32:59;12.20;99.90
76203;DHT22;64985;46.364;17.008;2023-06-26T03:36:01;12.30;99.90
76203;DHT22;64985;46.364;17.008;2023-06-26T03:39:03;12.30;99.90
76203;DHT22;64985;46.364;17.008;2023-06-26T03:42:06;12.30;99.90
76203;DHT22;64985;46.364;17.008;2023-06-26T03:45:08;12.40;99.90
76203;DHT22;64985;46.364;17.008;2023-06-26T03:48:11;12.50;99.90
76203;DHT22;64985;46.364;17.008;2023-06-26T03:51:13;12.60;99.90
76203;DHT22;64985;46.364;17.008;2023-06-26T03:54:15;12.70;99.90
76203;DHT22;64985;46.364;17.008;2023-06-26T03:57:17;12.80;99.90
76203;DHT22;64985;46.364;17.008;2023-06-26T04:00:19;12.80;99.90
76203;DHT22;64985;46.364;17.008;2023-06-26T04:03:22;12.90;99.90
76203;DHT22;64985;46.364;17.008;2023-06-26T04:06:24;12.90;99.90
76203;DHT22;64985;46.364;17.008;2023-06-26T04:09:26;13.00;99.90
76203;DHT22;64985;46.364;17.008;2023-06-26T04:12:29;13.00;99.90
76203;DHT22;64985;46.364;17.008;2023-06-26T04:15:31;13.00;99.90
76203;DHT22;64985;46.364;17.008;2023-06-26T04:18:33;13.10;99.90
76203;DHT22;64985;46.364;17.008;2023-06-26T04:21:35;13.20;99.90
76203;DHT22;64985;46.364;17.008;2023-06-26T04:24:38;13.30;99.90
76203;DHT22;64985;46.364;17.008;2023-06-26T04:27:40;13.40;99.90
76203;DHT22;64985;46.364;17.008;2023-06-26T04:30:42;13.60;99.90
76203;DHT22;64985;46.364;17.008;2023-06-26T04:33:44;13.80;99.90
76203;DHT22;64985;46.364;17.008;2023-06-26T04:36:46;14.00;99.90
76203;DHT22;64985;46.364;17.008;2023-06-26T04:39:50;14.20;99.90
76203;DHT22;64985;46.364;17.008;2023-06-26T04:42:52;14.50;99.90
76203;DHT22;64985;46.364;17.008;2023-06-26T04:45:54;14.80;99.90
76203;DHT22;64985;46.364;17.008;2023-06-26T04:48:56;15.00;99.90
76203;DHT22;64985;46.364;17.008;2023-06-26T04:52:00;15.30;99.90
76203;DHT22;64985;46.364;17.008;2023-06-26T04:55:03;15.60;99.90
76203;DHT22;64985;46.364;17.008;2023-06-26T04:58:05;16.00;99.90
76203;DHT22;64985;46.364;17.008;2023-06-26T05:01:07;16.30;99.90
76203;DHT22;64985;46.364;17.008;2023-06-26T05:04:10;16.70;99.90
76203;DHT22;64985;46.364;17.008;2023-06-26T05:07:12;17.10;99.90
76203;DHT22;64985;46.364;17.008;2023-06-26T05:10:14;17.50;99.90
76203;DHT22;64985;46.364;17.008;2023-06-26T05:13:16;17.90;99.90
76203;DHT22;64985;46.364;17.008;2023-06-26T05:16:21;18.30;99.90
76203;DHT22;64985;46.364;17.008;2023-06-26T05:19:23;18.60;99.90
76203;DHT22;64985;46.364;17.008;2023-06-26T05:22:26;18.80;99.90
76203;DHT22;64985;46.364;17.008;2023-06-26T05:25:29;18.90;99.90
76203;DHT22;64985;46.364;17.008;2023-06-26T05:28:32;19.10;99.90
76203;DHT22;64985;46.364;17.008;2023-06-26T05:31:35;19.30;99.90
76203;DHT22;64985;46.364;17.008;2023-06-26T05:34:42;19.50;99.90
76203;DHT22;64985;46.364;17.008;2023-06-26T05:37:45;19.90;99.90
76203;DHT22;64985;46.364;17.008;2023-06-26T05:40:47;20.00;99.90
76203;DHT22;64985;46.364;17.008;2023-06-26T05:43:49;20.20;99.90
76203;DHT22;64985;46.364;17.008;2023-06-26T05:46:51;20.50;99.90
76203;DHT22;64985;46.364;17.008;2023-06-26T05:49:54;20.80;99.90
76203;DHT22;64985;46.364;17.008;2023-06-26T05:52:56;21.00;99.90
76203;DHT22;64985;46.364;17.008;2023-06-26T05:55:58;21.20;99.90
76203;DHT22;64985;46.364;17.008;2023-06-26T05:59:02;21.40;99.90
76203;DHT22;64985;46.364;17.008;2023-06-26T06:02:05;21.70;99.10
76203;DHT22;64985;46.364;17.008;2023-06-26T06:05:07;22.00;97.80
76203;DHT22;64985;46.364;17.008;2023-06-26T06:08:09;22.20;96.50
76203;DHT22;64985;46.364;17.008;2023-06-26T06:11:11;22.40;97.40
76203;DHT22;64985;46.364;17.008;2023-06-26T06:14:14;22.70;91.50
76203;DHT22;64985;46.364;17.008;2023-06-26T06:17:16;22.70;93.90
76203;DHT22;64985;46.364;17.008;2023-06-26T06:20:27;22.70;93.40
76203;DHT22;64985;46.364;17.008;2023-06-26T06:23:29;22.90;92.40
76203;DHT22;64985;46.364;17.008;2023-06-26T06:26:31;23.20;92.40
76203;DHT22;64985;46.364;17.008;2023-06-26T06:29:33;23.40;92.20
76203;DHT22;64985;46.364;17.008;2023-06-26T06:32:35;23.50;91.60
76203;DHT22;64985;46.364;17.008;2023-06-26T06:35:38;23.60;90.30
76203;DHT22;64985;46.364;17.008;2023-06-26T06:38:43;23.90;91.20
76203;DHT22;64985;46.364;17.008;2023-06-26T06:41:45;23.80;87.50
76203;DHT22;64985;46.364;17.008;2023-06-26T06:44:48;24.20;89.00
76203;DHT22;64985;46.364;17.008;2023-06-26T06:47:50;24.10;81.70
76203;DHT22;64985;46.364;17.008;2023-06-26T06:50:52;24.30;84.30
76203;DHT22;64985;46.364;17.008;2023-06-26T06:53:54;24.30;84.00
76203;DHT22;64985;46.364;17.008;2023-06-26T06:56:56;24.70;87.90
76203;DHT22;64985;46.364;17.008;2023-06-26T06:59:58;25.20;82.10
76203;DHT22;64985;46.364;17.008;2023-06-26T07:03:00;25.40;78.50
76203;DHT22;64985;46.364;17.008;2023-06-26T07:06:02;25.70;77.20
76203;DHT22;64985;46.364;17.008;2023-06-26T07:09:05;26.00;76.50
76203;DHT22;64985;46.364;17.008;2023-06-26T07:12:08;26.00;74.90
76203;DHT22;64985;46.364;17.008;2023-06-26T07:15:10;26.00;76.30
76203;DHT22;64985;46.364;17.008;2023-06-26T07:18:13;25.70;73.70
76203;DHT22;64985;46.364;17.008;2023-06-26T07:21:15;25.50;74.60
76203;DHT22;64985;46.364;17.008;2023-06-26T07:24:17;26.00;74.30
76203;DHT22;64985;46.364;17.008;2023-06-26T07:27:20;26.10;70.70
76203;DHT22;64985;46.364;17.008;2023-06-26T07:30:22;26.40;71.70
76203;DHT22;64985;46.364;17.008;2023-06-26T07:33:26;26.80;71.40
76203;DHT22;64985;46.364;17.008;2023-06-26T07:36:28;27.10;68.90
76203;DHT22;64985;46.364;17.008;2023-06-26T07:39:30;27.10;66.30
76203;DHT22;64985;46.364;17.008;2023-06-26T07:42:32;26.80;68.70
76203;DHT22;64985;46.364;17.008;2023-06-26T07:45:34;26.90;64.00
76203;DHT22;64985;46.364;17.008;2023-06-26T07:48:36;27.50;63.20
76203;DHT22;64985;46.364;17.008;2023-06-26T07:51:39;28.00;64.60
76203;DHT22;64985;46.364;17.008;2023-06-26T07:54:41;27.60;61.00
76203;DHT22;64985;46.364;17.008;2023-06-26T07:57:43;28.10;59.30
76203;DHT22;64985;46.364;17.008;2023-06-26T08:00:48;28.30;62.60
76203;DHT22;64985;46.364;17.008;2023-06-26T08:03:50;28.00;62.50
76203;DHT22;64985;46.364;17.008;2023-06-26T08:06:55;28.30;63.20
76203;DHT22;64985;46.364;17.008;2023-06-26T08:09:57;28.40;63.00
76203;DHT22;64985;46.364;17.008;2023-06-26T08:12:59;28.90;59.30
76203;DHT22;64985;46.364;17.008;2023-06-26T08:16:01;28.80;57.80
76203;DHT22;64985;46.364;17.008;2023-06-26T08:19:03;29.10;58.70
76203;DHT22;64985;46.364;17.008;2023-06-26T08:22:05;29.20;59.80
76203;DHT22;64985;46.364;17.008;2023-06-26T08:25:08;29.00;54.20
76203;DHT22;64985;46.364;17.008;2023-06-26T08:28:10;29.20;58.70
76203;DHT22;64985;46.364;17.008;2023-06-26T08:31:12;29.90;54.00
76203;DHT22;64985;46.364;17.008;2023-06-26T08:34:14;29.30;49.60
76203;DHT22;64985;46.364;17.008;2023-06-26T08:37:16;28.70;53.50
76203;DHT22;64985;46.364;17.008;2023-06-26T08:40:19;29.10;54.60
76203;DHT22;64985;46.364;17.008;2023-06-26T08:43:23;29.60;57.20
76203;DHT22;64985;46.364;17.008;2023-06-26T08:46:25;30.00;53.40
76203;DHT22;64985;46.364;17.008;2023-06-26T08:50:13;30.10;56.30
76203;DHT22;64985;46.364;17.008;2023-06-26T08:53:03;29.60;52.90
76203;DHT22;64985;46.364;17.008;2023-06-26T08:56:07;29.90;52.90
76203;DHT22;64985;46.364;17.008;2023-06-26T08:59:09;30.70;52.70
76203;DHT22;64985;46.364;17.008;2023-06-26T09:02:16;31.00;52.60
76203;DHT22;64985;46.364;17.008;2023-06-26T09:05:18;31.20;51.50
76203;DHT22;64985;46.364;17.008;2023-06-26T09:08:21;30.90;52.90
76203;DHT22;64985;46.364;17.008;2023-06-26T09:11:23;31.20;54.70
76203;DHT22;64985;46.364;17.008;2023-06-26T09:14:25;30.80;54.20
76203;DHT22;64985;46.364;17.008;2023-06-26T09:17:32;30.60;49.50
76203;DHT22;64985;46.364;17.008;2023-06-26T09:20:35;31.00;50.50
76203;DHT22;64985;46.364;17.008;2023-06-26T09:23:40;31.40;51.30
76203;DHT22;64985;46.364;17.008;2023-06-26T09:26:43;31.70;49.50
76203;DHT22;64985;46.364;17.008;2023-06-26T09:29:46;31.20;49.70
76203;DHT22;64985;46.364;17.008;2023-06-26T09:32:49;31.00;48.50
76203;DHT22;64985;46.364;17.008;2023-06-26T09:35:52;30.80;48.00
76203;DHT22;64985;46.364;17.008;2023-06-26T09:38:55;31.20;52.70
76203;DHT22;64985;46.364;17.008;2023-06-26T09:41:58;31.60;50.70
76203;DHT22;64985;46.364;17.008;2023-06-26T09:45:01;31.40;48.20
76203;DHT22;64985;46.364;17.008;2023-06-26T09:48:04;31.30;47.30
76203;DHT22;64985;46.364;17.008;2023-06-26T09:51:07;31.10;48.70
76203;DHT22;64985;46.364;17.008;2023-06-26T09:54:16;31.50;49.50
76203;DHT22;64985;46.364;17.008;2023-06-26T09:57:19;32.10;49.60
76203;DHT22;64985;46.364;17.008;2023-06-26T10:00:21;31.80;45.70
76203;DHT22;64985;46.364;17.008;2023-06-26T10:03:23;31.60;47.60
76203;DHT22;64985;46.364;17.008;2023-06-26T10:06:35;31.40;47.90
76203;DHT22;64985;46.364;17.008;2023-06-26T10:09:41;31.80;48.70
76203;DHT22;64985;46.364;17.008;2023-06-26T10:12:48;32.30;46.60
76203;DHT22;64985;46.364;17.008;2023-06-26T10:15:51;32.70;51.70
76203;DHT22;64985;46.364;17.008;2023-06-26T10:18:58;32.70;46.40
76203;DHT22;64985;46.364;17.008;2023-06-26T10:22:02;32.50;47.30
76203;DHT22;64985;46.364;17.008;2023-06-26T10:25:06;32.50;49.00
76203;DHT22;64985;46.364;17.008;2023-06-26T10:28:10;33.20;45.80
76203;DHT22;64985;46.364;17.008;2023-06-26T10:31:14;32.90;50.10
76203;DHT22;64985;46.364;17.008;2023-06-26T10:34:16;32.80;48.50
76203;DHT22;64985;46.364;17.008;2023-06-26T10:37:19;33.00;47.70
76203;DHT22;64985;46.364;17.008;2023-06-26T10:40:24;33.40;48.10
76203;DHT22;64985;46.364;17.008;2023-06-26T10:43:30;32.20;45.30
76203;DHT22;64985;46.364;17.008;2023-06-26T10:46:52;31.30;46.60
76203;DHT22;64985;46.364;17.008;2023-06-26T10:49:55;31.50;50.00
76203;DHT22;64985;46.364;17.008;2023-06-26T10:56:55;31.90;46.10
76203;DHT22;64985;46.364;17.008;2023-06-26T11:00:13;31.80;50.20
76203;DHT22;64985;46.364;17.008;2023-06-26T11:03:29;32.70;46.20
76203;DHT22;64985;46.364;17.008;2023-06-26T11:06:35;32.10;49.40
76203;DHT22;64985;46.364;17.008;2023-06-26T11:10:02;32.40;48.40
76203;DHT22;64985;46.364;17.008;2023-06-26T11:13:10;33.00;47.70
76203;DHT22;64985;46.364;17.008;2023-06-26T11:16:13;32.60;46.30
76203;DHT22;64985;46.364;17.008;2023-06-26T11:19:19;32.50;46.40
76203;DHT22;64985;46.364;17.008;2023-06-26T11:22:22;32.70;47.20
76203;DHT22;64985;46.364;17.008;2023-06-26T11:25:25;32.00;44.70
76203;DHT22;64985;46.364;17.008;2023-06-26T11:28:27;31.20;47.70
76203;DHT22;64985;46.364;17.008;2023-06-26T11:31:32;30.40;52.20
76203;DHT22;64985;46.364;17.008;2023-06-26T11:34:35;30.40;56.10
76203;DHT22;64985;46.364;17.008;2023-06-26T11:37:37;31.30;51.10
76203;DHT22;64985;46.364;17.008;2023-06-26T11:40:39;31.90;47.20
76203;DHT22;64985;46.364;17.008;2023-06-26T11:43:42;32.00;48.80
76203;DHT22;64985;46.364;17.008;2023-06-26T11:46:44;31.30;47.20
76203;DHT22;64985;46.364;17.008;2023-06-26T11:49:47;30.60;49.90
76203;DHT22;64985;46.364;17.008;2023-06-26T11:52:54;29.90;47.70
76203;DHT22;64985;46.364;17.008;2023-06-26T11:55:57;29.70;51.30
76203;DHT22;64985;46.364;17.008;2023-06-26T11:59:04;30.50;49.80
76203;DHT22;64985;46.364;17.008;2023-06-26T12:02:12;31.50;47.50
76203;DHT22;64985;46.364;17.008;2023-06-26T12:05:16;32.50;45.60
76203;DHT22;64985;46.364;17.008;2023-06-26T12:08:18;31.60;46.00
76203;DHT22;64985;46.364;17.008;2023-06-26T12:11:23;30.90;50.10
76203;DHT22;64985;46.364;17.008;2023-06-26T12:14:27;30.70;49.00
76203;DHT22;64985;46.364;17.008;2023-06-26T12:17:32;31.40;53.00
76203;DHT22;64985;46.364;17.008;2023-06-26T12:20:39;31.40;53.40
76203;DHT22;64985;46.364;17.008;2023-06-26T12:23:42;30.80;50.00
76203;DHT22;64985;46.364;17.008;2023-06-26T12:26:46;31.40;50.50
76203;DHT22;64985;46.364;17.008;2023-06-26T12:29:51;32.00;48.60
76203;DHT22;64985;46.364;17.008;2023-06-26T12:32:54;32.80;45.50
76203;DHT22;64985;46.364;17.008;2023-06-26T12:35:57;33.40;48.30
76203;DHT22;64985;46.364;17.008;2023-06-26T12:39:00;33.30;47.60
76203;DHT22;64985;46.364;17.008;2023-06-26T12:42:03;32.80;47.20
76203;DHT22;64985;46.364;17.008;2023-06-26T12:45:11;33.00;51.20
76203;DHT22;64985;46.364;17.008;2023-06-26T12:48:44;32.80;42.90
76203;DHT22;64985;46.364;17.008;2023-06-26T12:51:48;33.10;43.40
76203;DHT22;64985;46.364;17.008;2023-06-26T12:54:54;32.50;42.20
76203;DHT22;64985;46.364;17.008;2023-06-26T13:01:19;32.80;42.60
76203;DHT22;64985;46.364;17.008;2023-06-26T13:04:22;33.00;47.40
76203;DHT22;64985;46.364;17.008;2023-06-26T13:07:24;33.00;41.00
76203;DHT22;64985;46.364;17.008;2023-06-26T13:10:27;32.20;46.00
76203;DHT22;64985;46.364;17.008;2023-06-26T13:13:31;32.80;43.30
76203;DHT22;64985;46.364;17.008;2023-06-26T13:16:33;33.20;45.30
76203;DHT22;64985;46.364;17.008;2023-06-26T13:19:35;33.70;42.90
76203;DHT22;64985;46.364;17.008;2023-06-26T13:22:38;33.90;44.40
76203;DHT22;64985;46.364;17.008;2023-06-26T13:25:40;34.10;44.20
76203;DHT22;64985;46.364;17.008;2023-06-26T13:28:42;33.80;40.90
76203;DHT22;64985;46.364;17.008;2023-06-26T13:31:44;33.40;40.70
76203;DHT22;64985;46.364;17.008;2023-06-26T13:34:46;33.70;39.10
76203;DHT22;64985;46.364;17.008;2023-06-26T13:37:50;33.50;43.20
76203;DHT22;64985;46.364;17.008;2023-06-26T13:40:55;33.20;47.90
76203;DHT22;64985;46.364;17.008;2023-06-26T13:44:02;33.30;45.20
76203;DHT22;64985;46.364;17.008;2023-06-26T13:47:14;33.20;43.80
76203;DHT22;64985;46.364;17.008;2023-06-26T13:50:16;32.40;47.00
76203;DHT22;64985;46.364;17.008;2023-06-26T13:53:19;31.90;47.40
76203;DHT22;64985;46.364;17.008;2023-06-26T13:56:21;32.60;49.00
76203;DHT22;64985;46.364;17.008;2023-06-26T13:59:24;32.60;47.20
76203;DHT22;64985;46.364;17.008;2023-06-26T14:02:27;33.30;44.90
76203;DHT22;64985;46.364;17.008;2023-06-26T14:05:31;33.00;48.30
76203;DHT22;64985;46.364;17.008;2023-06-26T14:08:35;32.30;45.80
76203;DHT22;64985;46.364;17.008;2023-06-26T14:11:38;31.90;47.10
76203;DHT22;64985;46.364;17.008;2023-06-26T14:14:40;32.40;48.30
76203;DHT22;64985;46.364;17.008;2023-06-26T14:17:42;32.90;44.30
76203;DHT22;64985;46.364;17.008;2023-06-26T14:20:44;32.80;44.50
76203;DHT22;64985;46.364;17.008;2023-06-26T14:23:46;32.70;44.20
76203;DHT22;64985;46.364;17.008;2023-06-26T14:26:48;32.60;42.60
76203;DHT22;64985;46.364;17.008;2023-06-26T14:29:50;32.90;45.70
76203;DHT22;64985;46.364;17.008;2023-06-26T14:32:52;33.20;42.40
76203;DHT22;64985;46.364;17.008;2023-06-26T14:35:55;32.60;48.10
76203;DHT22;64985;46.364;17.008;2023-06-26T14:38:57;32.70;46.10
76203;DHT22;64985;46.364;17.008;2023-06-26T14:42:01;32.70;46.30
76203;DHT22;64985;46.364;17.008;2023-06-26T14:45:04;32.60;44.70
76203;DHT22;64985;46.364;17.008;2023-06-26T14:48:06;32.70;45.20
76203;DHT22;64985;46.364;17.008;2023-06-26T14:51:08;33.20;47.40
76203;DHT22;64985;46.364;17.008;2023-06-26T14:54:11;33.00;43.80
76203;DHT22;64985;46.364;17.008;2023-06-26T14:57:13;32.10;48.90
76203;DHT22;64985;46.364;17.008;2023-06-26T15:00:15;31.70;48.40
76203;DHT22;64985;46.364;17.008;2023-06-26T15:03:18;31.40;51.80
76203;DHT22;64985;46.364;17.008;2023-06-26T15:06:20;31.80;49.40
76203;DHT22;64985;46.364;17.008;2023-06-26T15:09:22;31.30;53.40
76203;DHT22;64985;46.364;17.008;2023-06-26T15:12:25;31.00;53.70
76203;DHT22;64985;46.364;17.008;2023-06-26T15:15:29;30.80;50.10
76203;DHT22;64985;46.364;17.008;2023-06-26T15:18:31;30.20;53.80
76203;DHT22;64985;46.364;17.008;2023-06-26T15:21:33;29.70;56.60
76203;DHT22;64985;46.364;17.008;2023-06-26T15:24:36;29.80;59.70
76203;DHT22;64985;46.364;17.008;2023-06-26T15:27:38;29.40;63.20
76203;DHT22;64985;46.364;17.008;2023-06-26T15:30:40;29.00;65.50
76203;DHT22;64985;46.364;17.008;2023-06-26T15:33:43;29.40;64.80
76203;DHT22;64985;46.364;17.008;2023-06-26T15:36:45;29.10;66.20
76203;DHT22;64985;46.364;17.008;2023-06-26T15:39:47;28.80;67.00
76203;DHT22;64985;46.364;17.008;2023-06-26T15:42:51;28.90;67.50
76203;DHT22;64985;46.364;17.008;2023-06-26T15:45:54;29.30;57.00
76203;DHT22;64985;46.364;17.008;2023-06-26T15:48:56;29.70;54.10
76203;DHT22;64985;46.364;17.008;2023-06-26T15:51:58;30.10;56.60
76203;DHT22;64985;46.364;17.008;2023-06-26T15:55:01;30.10;51.20
76203;DHT22;64985;46.364;17.008;2023-06-26T15:58:03;30.00;53.80
76203;DHT22;64985;46.364;17.008;2023-06-26T16:01:05;30.10;52.70
76203;DHT22;64985;46.364;17.008;2023-06-26T16:04:07;30.10;50.10
76203;DHT22;64985;46.364;17.008;2023-06-26T16:07:09;30.00;49.80
76203;DHT22;64985;46.364;17.008;2023-06-26T16:10:11;30.20;52.50
76203;DHT22;64985;46.364;17.008;2023-06-26T16:13:13;30.40;49.20
76203;DHT22;64985;46.364;17.008;2023-06-26T16:16:17;30.30;53.90
76203;DHT22;64985;46.364;17.008;2023-06-26T16:19:20;30.20;51.90
76203;DHT22;64985;46.364;17.008;2023-06-26T16:22:22;30.20;49.80
76203;DHT22;64985;46.364;17.008;2023-06-26T16:25:24;29.90;51.10
76203;DHT22;64985;46.364;17.008;2023-06-26T16:28:26;29.70;51.40
76203;DHT22;64985;46.364;17.008;2023-06-26T16:31:28;29.40;51.50
76203;DHT22;64985;46.364;17.008;2023-06-26T16:34:31;29.30;53.70
76203;DHT22;64985;46.364;17.008;2023-06-26T16:37:33;29.20;53.10
76203;DHT22;64985;46.364;17.008;2023-06-26T16:40:35;29.10;53.90
76203;DHT22;64985;46.364;17.008;2023-06-26T16:43:38;28.80;55.00
76203;DHT22;64985;46.364;17.008;2023-06-26T16:46:41;28.80;55.80
76203;DHT22;64985;46.364;17.008;2023-06-26T16:49:43;28.80;53.70
76203;DHT22;64985;46.364;17.008;2023-06-26T16:52:45;28.70;54.00
76203;DHT22;64985;46.364;17.008;2023-06-26T16:55:48;28.60;54.40
76203;DHT22;64985;46.364;17.008;2023-06-26T16:58:50;28.50;53.70
76203;DHT22;64985;46.364;17.008;2023-06-26T17:01:52;28.40;54.50
76203;DHT22;64985;46.364;17.008;2023-06-26T17:04:59;28.40;56.70
76203;DHT22;64985;46.364;17.008;2023-06-26T17:08:01;28.10;59.90
76203;DHT22;64985;46.364;17.008;2023-06-26T17:11:04;28.00;64.30
76203;DHT22;64985;46.364;17.008;2023-06-26T17:14:06;27.90;66.10
76203;DHT22;64985;46.364;17.008;2023-06-26T17:17:08;27.80;69.00
76203;DHT22;64985;46.364;17.008;2023-06-26T17:20:11;27.60;69.50
76203;DHT22;64985;46.364;17.008;2023-06-26T17:23:13;27.40;69.20
76203;DHT22;64985;46.364;17.008;2023-06-26T17:26:15;27.20;72.90
76203;DHT22;64985;46.364;17.008;2023-06-26T17:29:17;27.00;78.40
76203;DHT22;64985;46.364;17.008;2023-06-26T17:32:20;26.80;79.30
76203;DHT22;64985;46.364;17.008;2023-06-26T17:35:23;26.80;74.30
76203;DHT22;64985;46.364;17.008;2023-06-26T17:38:26;26.50;73.60
76203;DHT22;64985;46.364;17.008;2023-06-26T17:41:29;26.40;82.50
76203;DHT22;64985;46.364;17.008;2023-06-26T17:44:31;26.10;86.10
76203;DHT22;64985;46.364;17.008;2023-06-26T17:47:33;25.80;83.40
76203;DHT22;64985;46.364;17.008;2023-06-26T17:50:36;25.50;83.30
76203;DHT22;64985;46.364;17.008;2023-06-26T17:53:39;25.20;86.70
76203;DHT22;64985;46.364;17.008;2023-06-26T17:56:41;25.00;90.40
76203;DHT22;64985;46.364;17.008;2023-06-26T17:59:44;24.80;95.80
76203;DHT22;64985;46.364;17.008;2023-06-26T18:02:47;24.50;95.70
76203;DHT22;64985;46.364;17.008;2023-06-26T18:05:50;24.30;96.20
76203;DHT22;64985;46.364;17.008;2023-06-26T18:08:52;24.10;99.40
76203;DHT22;64985;46.364;17.008;2023-06-26T18:11:55;23.90;99.90
76203;DHT22;64985;46.364;17.008;2023-06-26T18:14:57;23.70;99.90
76203;DHT22;64985;46.364;17.008;2023-06-26T18:18:03;23.50;99.90
76203;DHT22;64985;46.364;17.008;2023-06-26T18:21:06;23.20;99.90
76203;DHT22;64985;46.364;17.008;2023-06-26T18:24:08;23.00;99.90
76203;DHT22;64985;46.364;17.008;2023-06-26T18:27:10;22.80;99.90
76203;DHT22;64985;46.364;17.008;2023-06-26T18:30:13;22.50;99.90
76203;DHT22;64985;46.364;17.008;2023-06-26T18:33:16;22.30;99.90
76203;DHT22;64985;46.364;17.008;2023-06-26T18:36:19;22.10;99.90
76203;DHT22;64985;46.364;17.008;2023-06-26T18:39:21;22.10;99.90
76203;DHT22;64985;46.364;17.008;2023-06-26T18:42:24;21.90;99.90
76203;DHT22;64985;46.364;17.008;2023-06-26T18:45:26;21.70;99.90
76203;DHT22;64985;46.364;17.008;2023-06-26T18:48:28;21.60;99.90
76203;DHT22;64985;46.364;17.008;2023-06-26T18:51:31;21.40;99.90
76203;DHT22;64985;46.364;17.008;2023-06-26T18:54:33;21.20;99.90
76203;DHT22;64985;46.364;17.008;2023-06-26T18:57:36;21.10;99.90
76203;DHT22;64985;46.364;17.008;2023-06-26T19:00:38;21.00;99.90
76203;DHT22;64985;46.364;17.008;2023-06-26T19:03:41;20.80;99.90
76203;DHT22;64985;46.364;17.008;2023-06-26T19:06:43;20.70;99.90
76203;DHT22;64985;46.364;17.008;2023-06-26T19:09:46;20.60;99.90